Princeville, Illinois
Current Conditions -  °F | °C
As of 3:54 PM on Friday 24 Oct 2014 (Local Time) from KPIA Reporting Station
Clear Clear  
Wind Chill: 65°   Ceiling: Unl
Heat Index: 65°   Visibility: 10mi
Dew Point: 53°   Wind: 6mph
Humidity: 65%   Direction: 190°S
Pressure: 29.99"   Gusts: NA
Location:  40.93°N, 89.76°W
Report Text: KPIA 242054Z 19005KT 10SM CLR 18/12 A2999 RMK AO2 SLP154 T01830117 56023
Loading
Personal Weather Stations






























Interactive Weather Map
Tropical Storm Tracking
New forecast layout! Learn more

10-Day Weather Forecast

Advertisements
Track Severe Weather on mobile